Time;durP1;ratioP1;P1;durP2;ratioP2;P2;SDS_P1;SDS_P2;PMS_P1;PMS_P2;Temp;Humidity;BMP_temperature;BMP_pressure;BME280_temperature;BME280_humidity;BME280_pressure;Samples;Min_cycle;Max_cycle;Signal;HPM_P1;HPM_P2
2021/12/18 00:02:12;;;;;;;11.87;6.20;;;;;;;;;;5013748;28;20281;-77
2021/12/18 00:04:39;;;;;;;12.63;5.73;;;;;;;;;;5013381;28;20309;-77
2021/12/18 00:07:05;;;;;;;11.20;5.17;;;;;;;;;;5013754;28;20280;-77
2021/12/18 00:09:32;;;;;;;9.03;4.17;;;;;;;;;;5012989;28;20769;-78
2021/12/18 00:11:59;;;;;;;11.40;5.13;;;;;;;;;;4996303;28;20773;-77
2021/12/18 00:14:25;;;;;;;13.57;5.33;;;;;;;;;;5013113;28;20307;-77
2021/12/18 00:16:52;;;;;;;10.03;4.77;;;;;;;;;;4996516;28;20367;-77
2021/12/18 00:19:24;;;;;;;19.63;6.03;;;;;;;;;;5013187;28;20288;-77
2021/12/18 00:21:50;;;;;;;13.47;5.63;;;;;;;;;;5013689;28;20277;-77
2021/12/18 00:24:16;;;;;;;14.13;5.57;;;;;;;;;;5013565;28;20396;-77
2021/12/18 00:26:42;;;;;;;11.80;5.00;;;;;;;;;;5013334;28;20284;-77
2021/12/18 00:29:09;;;;;;;11.20;4.70;;;;;;;;;;4995786;28;20304;-77
2021/12/18 00:31:35;;;;;;;10.47;4.90;;;;;;;;;;5012236;28;20407;-77
2021/12/18 00:34:01;;;;;;;7.57;4.07;;;;;;;;;;4995956;28;20288;-77
2021/12/18 00:36:27;;;;;;;9.50;5.17;;;;;;;;;;5012867;28;20284;-77
2021/12/18 00:38:53;;;;;;;7.93;4.90;;;;;;;;;;5013195;28;20281;-77
2021/12/18 00:44:03;;;;;;;9.87;5.57;;;;;;;;;;4996154;28;20292;-77
2021/12/18 00:46:31;;;;;;;7.57;4.77;;;;;;;;;;4995328;28;20281;-77
2021/12/18 00:48:57;;;;;;;8.73;4.70;;;;;;;;;;4996059;28;20610;-77
2021/12/18 00:51:23;;;;;;;7.67;4.20;;;;;;;;;;5012581;28;20831;-77
2021/12/18 00:53:49;;;;;;;9.90;4.60;;;;;;;;;;5013051;28;20280;-77
2021/12/18 00:56:16;;;;;;;11.57;5.13;;;;;;;;;;5013079;28;20295;-77
2021/12/18 00:58:42;;;;;;;9.33;4.57;;;;;;;;;;5012777;28;20292;-77
2021/12/18 01:01:10;;;;;;;8.27;3.73;;;;;;;;;;5012991;28;20303;-77
2021/12/18 01:03:38;;;;;;;7.57;2.90;;;;;;;;;;5012716;28;20288;-77
2021/12/18 01:06:04;;;;;;;10.57;2.70;;;;;;;;;;5012934;28;20277;-77
2021/12/18 01:08:31;;;;;;;7.87;3.20;;;;;;;;;;4995228;28;20685;-77
2021/12/18 01:14:09;;;;;;;8.23;4.53;;;;;;;;;;5012690;28;20661;-77
2021/12/18 01:16:38;;;;;;;9.97;5.50;;;;;;;;;;5011104;28;20289;-77
2021/12/18 01:24:49;;;;;;;16.57;7.80;;;;;;;;;;5012433;28;20317;-76
2021/12/18 01:27:15;;;;;;;32.43;10.23;;;;;;;;;;5012821;28;20704;-77
2021/12/18 01:29:42;;;;;;;38.13;11.03;;;;;;;;;;5012488;28;20375;-77
2021/12/18 01:32:08;;;;;;;27.97;9.03;;;;;;;;;;5012741;28;20379;-78
2021/12/18 01:34:35;;;;;;;32.93;9.80;;;;;;;;;;5012276;28;20301;-77
2021/12/18 01:37:01;;;;;;;36.60;10.60;;;;;;;;;;5012678;28;20303;-76
2021/12/18 01:39:27;;;;;;;32.60;10.20;;;;;;;;;;4995099;28;20293;-77
2021/12/18 01:42:14;;;;;;;26.17;8.30;;;;;;;;;;4996356;28;20285;-77
2021/12/18 01:52:54;;;;;;;25.77;8.37;;;;;;;;;;5016387;28;20104;-76
2021/12/18 01:55:21;;;;;;;33.90;9.83;;;;;;;;;;5016204;28;20375;-76
2021/12/18 01:57:47;;;;;;;25.77;8.87;;;;;;;;;;5015703;28;20397;-76
2021/12/18 02:00:17;;;;;;;30.20;8.70;;;;;;;;;;5016055;28;20318;-77
2021/12/18 02:02:43;;;;;;;51.67;10.33;;;;;;;;;;5015349;28;20845;-77
2021/12/18 02:05:09;;;;;;;33.83;9.63;;;;;;;;;;4998343;28;20457;-77
2021/12/18 02:07:35;;;;;;;31.33;7.27;;;;;;;;;;5015629;28;20320;-77
2021/12/18 02:10:06;;;;;;;16.87;5.70;;;;;;;;;;5015671;28;20741;-77
2021/12/18 02:12:43;;;;;;;15.73;6.40;;;;;;;;;;5015507;28;20360;-77
2021/12/18 02:20:49;;;;;;;10.60;4.50;;;;;;;;;;5015396;28;20100;-77
2021/12/18 02:23:16;;;;;;;9.47;4.43;;;;;;;;;;5015332;28;20062;-77
2021/12/18 02:25:44;;;;;;;10.63;4.93;;;;;;;;;;5015631;28;20690;-77
2021/12/18 02:28:18;;;;;;;15.70;3.47;;;;;;;;;;4998197;28;20793;-77
2021/12/18 02:30:44;;;;;;;12.53;3.37;;;;;;;;;;5015271;28;20273;-77
2021/12/18 02:33:11;;;;;;;7.97;3.03;;;;;;;;;;5015356;28;20285;-77
2021/12/18 02:35:44;;;;;;;16.07;2.90;;;;;;;;;;5014948;28;20297;-77
2021/12/18 02:38:18;;;;;;;10.83;3.13;;;;;;;;;;4998158;28;20288;-77
2021/12/18 02:43:28;;;;;;;7.40;2.77;;;;;;;;;;5015288;28;20086;-77
2021/12/18 02:45:59;;;;;;;9.27;2.93;;;;;;;;;;5014918;28;20327;-76
2021/12/18 02:48:26;;;;;;;11.83;3.43;;;;;;;;;;5015267;28;20607;-76
2021/12/18 02:50:52;;;;;;;12.30;3.10;;;;;;;;;;5014765;28;20320;-76
2021/12/18 02:53:18;;;;;;;17.73;3.50;;;;;;;;;;5014325;28;20621;-76
2021/12/18 02:55:44;;;;;;;8.97;3.30;;;;;;;;;;5014601;28;20384;-76
2021/12/18 02:58:10;;;;;;;8.50;3.03;;;;;;;;;;5014895;28;20281;-76
2021/12/18 03:00:36;;;;;;;6.07;2.70;;;;;;;;;;5014536;28;20284;-76
2021/12/18 03:03:08;;;;;;;4.70;2.37;;;;;;;;;;5014908;28;20681;-76
2021/12/18 03:05:41;;;;;;;6.80;3.27;;;;;;;;;;5014881;28;20407;-76
2021/12/18 03:08:15;;;;;;;6.53;2.87;;;;;;;;;;5014994;28;20617;-76
2021/12/18 03:20:20;;;;;;;5.53;2.70;;;;;;;;;;5013382;28;20246;-76
2021/12/18 03:24:36;;;;;;;5.60;2.60;;;;;;;;;;5014139;28;20296;-76
2021/12/18 03:27:02;;;;;;;6.33;2.30;;;;;;;;;;4996988;28;20285;-77
2021/12/18 03:29:28;;;;;;;6.67;2.60;;;;;;;;;;5014448;28;20285;-77
2021/12/18 03:31:54;;;;;;;10.13;2.90;;;;;;;;;;5013993;28;20360;-76
2021/12/18 03:34:20;;;;;;;6.43;3.00;;;;;;;;;;5014159;28;20428;-77
2021/12/18 03:36:46;;;;;;;5.63;2.47;;;;;;;;;;5013864;28;20364;-77
2021/12/18 03:39:15;;;;;;;7.17;2.57;;;;;;;;;;4996909;28;20288;-77
2021/12/18 03:41:41;;;;;;;6.37;2.50;;;;;;;;;;5013754;28;20284;-76
2021/12/18 03:44:07;;;;;;;6.53;2.30;;;;;;;;;;5014274;28;20363;-76
2021/12/18 03:46:34;;;;;;;8.60;2.37;;;;;;;;;;5014139;28;20303;-76
2021/12/18 03:49:00;;;;;;;9.23;3.13;;;;;;;;;;5013400;28;20836;-76
2021/12/18 03:51:26;;;;;;;9.57;3.47;;;;;;;;;;5014168;28;20796;-76
2021/12/18 03:53:52;;;;;;;9.67;3.60;;;;;;;;;;4996214;28;20355;-76
2021/12/18 03:56:19;;;;;;;9.67;3.30;;;;;;;;;;5013883;28;20379;-76
2021/12/18 03:58:45;;;;;;;7.97;3.30;;;;;;;;;;5013563;28;20277;-76
2021/12/18 04:01:12;;;;;;;9.97;3.53;;;;;;;;;;4996253;28;20372;-76
2021/12/18 04:03:38;;;;;;;9.67;3.40;;;;;;;;;;5013461;28;20677;-76
2021/12/18 04:06:04;;;;;;;10.90;3.80;;;;;;;;;;5013345;28;20295;-76
2021/12/18 04:08:30;;;;;;;10.23;3.83;;;;;;;;;;5013642;28;20364;-76
2021/12/18 04:10:56;;;;;;;10.10;3.37;;;;;;;;;;4995881;28;20323;-76
2021/12/18 04:13:22;;;;;;;9.87;3.43;;;;;;;;;;4996102;28;20359;-77
2021/12/18 04:15:48;;;;;;;11.83;4.30;;;;;;;;;;5013107;28;20301;-77
2021/12/18 04:18:14;;;;;;;15.60;4.83;;;;;;;;;;5013338;28;20681;-77
2021/12/18 04:20:40;;;;;;;10.17;4.13;;;;;;;;;;5013605;28;20419;-77
2021/12/18 04:23:07;;;;;;;12.33;4.70;;;;;;;;;;5013012;28;20424;-76
2021/12/18 04:25:33;;;;;;;13.03;5.03;;;;;;;;;;4995807;28;20300;-77
2021/12/18 04:27:59;;;;;;;9.97;4.97;;;;;;;;;;5013123;28;20289;-77
2021/12/18 04:30:25;;;;;;;12.90;4.80;;;;;;;;;;4996142;28;20371;-77
2021/12/18 04:32:51;;;;;;;11.97;4.97;;;;;;;;;;5013061;28;20281;-77
2021/12/18 04:35:18;;;;;;;9.37;4.97;;;;;;;;;;5013244;28;20769;-77
2021/12/18 04:37:44;;;;;;;10.57;4.70;;;;;;;;;;5013276;28;20367;-77
2021/12/18 04:40:11;;;;;;;11.27;5.40;;;;;;;;;;4996031;28;20277;-77
2021/12/18 04:42:37;;;;;;;8.50;4.30;;;;;;;;;;5013166;28;20320;-77
2021/12/18 04:45:04;;;;;;;10.63;4.53;;;;;;;;;;5012919;28;20613;-77
2021/12/18 04:47:30;;;;;;;9.60;4.87;;;;;;;;;;5013092;28;20277;-77
2021/12/18 04:49:56;;;;;;;10.40;5.33;;;;;;;;;;5012766;28;20291;-77
2021/12/18 04:52:23;;;;;;;8.53;4.20;;;;;;;;;;5013289;28;20291;-77
2021/12/18 04:54:49;;;;;;;9.90;4.17;;;;;;;;;;5012666;28;20297;-77
2021/12/18 04:57:15;;;;;;;9.83;3.83;;;;;;;;;;4995598;28;20285;-76
2021/12/18 04:59:44;;;;;;;8.03;4.03;;;;;;;;;;5012989;28;20423;-77
2021/12/18 05:02:11;;;;;;;7.80;3.30;;;;;;;;;;5012740;28;20280;-77
2021/12/18 05:04:37;;;;;;;8.20;3.80;;;;;;;;;;5012994;28;20280;-76
2021/12/18 05:07:04;;;;;;;6.60;3.27;;;;;;;;;;5012638;28;20292;-77
2021/12/18 05:09:30;;;;;;;7.97;4.10;;;;;;;;;;5012951;28;20382;-76
2021/12/18 05:11:56;;;;;;;8.20;4.40;;;;;;;;;;4995409;28;20296;-77
2021/12/18 05:14:22;;;;;;;7.60;4.20;;;;;;;;;;5012761;28;20384;-77
2021/12/18 05:16:48;;;;;;;9.27;4.83;;;;;;;;;;5013810;28;20281;-76
2021/12/18 05:19:15;;;;;;;9.50;4.80;;;;;;;;;;5016797;28;20320;-77
2021/12/18 05:21:41;;;;;;;9.00;4.53;;;;;;;;;;5016806;28;20354;-77
2021/12/18 05:24:07;;;;;;;9.73;4.60;;;;;;;;;;5016258;28;20814;-77
2021/12/18 05:26:34;;;;;;;13.83;5.20;;;;;;;;;;5016718;28;20281;-77
2021/12/18 05:29:00;;;;;;;8.30;5.00;;;;;;;;;;5015973;28;20784;-77
2021/12/18 05:31:26;;;;;;;13.87;5.63;;;;;;;;;;4999190;28;20284;-77
2021/12/18 05:33:57;;;;;;;8.67;5.00;;;;;;;;;;5016173;28;20289;-77
2021/12/18 05:36:32;;;;;;;12.67;5.23;;;;;;;;;;5016711;28;20281;-76
2021/12/18 05:39:05;;;;;;;10.07;5.25;;;;;;;;;;5016190;28;20280;-76
2021/12/18 05:41:32;;;;;;;10.77;5.23;;;;;;;;;;4999205;28;20058;-76
2021/12/18 05:43:58;;;;;;;9.87;5.87;;;;;;;;;;5015966;28;20364;-77
2021/12/18 05:46:24;;;;;;;14.10;6.13;;;;;;;;;;5016288;28;20281;-76
2021/12/18 05:48:50;;;;;;;12.03;5.87;;;;;;;;;;5016316;28;20359;-77
2021/12/18 05:51:16;;;;;;;13.77;5.93;;;;;;;;;;5016395;28;20284;-76
2021/12/18 05:53:43;;;;;;;9.50;5.60;;;;;;;;;;5016157;28;20325;-77
2021/12/18 05:56:09;;;;;;;13.63;6.93;;;;;;;;;;5015854;28;20300;-77
2021/12/18 05:58:36;;;;;;;13.27;5.80;;;;;;;;;;5016134;28;20273;-77
2021/12/18 06:01:02;;;;;;;11.10;5.90;;;;;;;;;;5015449;28;20776;-76
2021/12/18 06:03:28;;;;;;;10.73;6.20;;;;;;;;;;5016143;28;20372;-76
2021/12/18 06:05:54;;;;;;;12.20;6.50;;;;;;;;;;4998093;28;20335;-76
2021/12/18 06:08:20;;;;;;;13.60;5.97;;;;;;;;;;5016102;28;20280;-76
2021/12/18 06:10:46;;;;;;;10.50;5.50;;;;;;;;;;5015727;28;20296;-77
2021/12/18 06:13:12;;;;;;;8.97;5.40;;;;;;;;;;4998079;28;20299;-77
2021/12/18 06:15:39;;;;;;;10.10;5.43;;;;;;;;;;5015660;28;20297;-76
2021/12/18 06:18:05;;;;;;;11.53;5.63;;;;;;;;;;5015362;28;20281;-76
2021/12/18 06:20:31;;;;;;;11.13;5.50;;;;;;;;;;5015662;28;20296;-76
2021/12/18 06:22:59;;;;;;;16.53;6.27;;;;;;;;;;5015338;28;20281;-77
2021/12/18 06:25:25;;;;;;;12.47;5.37;;;;;;;;;;5015166;28;20368;-76
2021/12/18 06:27:51;;;;;;;11.50;5.87;;;;;;;;;;5014470;28;20839;-76
2021/12/18 06:30:19;;;;;;;11.07;5.43;;;;;;;;;;5014804;28;20281;-76
2021/12/18 06:32:45;;;;;;;10.23;5.63;;;;;;;;;;5015545;28;20281;-76
2021/12/18 06:35:11;;;;;;;12.33;5.40;;;;;;;;;;5014980;28;20367;-76
2021/12/18 06:37:37;;;;;;;8.70;5.30;;;;;;;;;;5015402;28;20280;-76
2021/12/18 06:40:04;;;;;;;10.53;5.07;;;;;;;;;;5014984;28;20288;-76
2021/12/18 06:42:30;;;;;;;10.23;4.50;;;;;;;;;;5015217;28;20289;-76
2021/12/18 06:44:56;;;;;;;10.10;4.93;;;;;;;;;;5015330;28;20356;-76
2021/12/18 06:47:23;;;;;;;10.33;4.90;;;;;;;;;;5015094;28;20343;-76
2021/12/18 06:49:49;;;;;;;13.07;5.20;;;;;;;;;;5015145;28;20285;-75
2021/12/18 06:52:15;;;;;;;11.80;5.13;;;;;;;;;;5014457;28;20788;-76
2021/12/18 06:54:41;;;;;;;10.40;5.10;;;;;;;;;;5014955;28;20293;-75
2021/12/18 06:57:07;;;;;;;11.47;4.97;;;;;;;;;;4981109;28;20364;-75
2021/12/18 06:59:33;;;;;;;10.50;4.97;;;;;;;;;;5014889;28;20320;-76
2021/12/18 07:01:59;;;;;;;12.60;5.20;;;;;;;;;;5014753;28;20640;-77
2021/12/18 07:04:25;;;;;;;12.20;5.60;;;;;;;;;;5014853;28;20283;-76
2021/12/18 07:06:53;;;;;;;12.30;4.90;;;;;;;;;;5014811;28;20363;-75
2021/12/18 07:09:20;;;;;;;9.43;4.90;;;;;;;;;;5014422;28;20291;-76
2021/12/18 07:11:46;;;;;;;10.50;4.83;;;;;;;;;;5014663;28;20359;-76
2021/12/18 07:14:15;;;;;;;11.17;4.73;;;;;;;;;;5014173;28;20280;-76
2021/12/18 07:16:42;;;;;;;11.73;5.00;;;;;;;;;;5014627;28;20367;-76
2021/12/18 07:19:08;;;;;;;12.63;5.43;;;;;;;;;;5014288;28;20607;-76
2021/12/18 07:21:34;;;;;;;13.37;5.50;;;;;;;;;;5014506;28;20281;-76
2021/12/18 07:24:00;;;;;;;11.77;4.83;;;;;;;;;;5014191;28;20343;-75
2021/12/18 07:26:27;;;;;;;12.33;5.50;;;;;;;;;;5014194;28;20288;-76
2021/12/18 07:28:54;;;;;;;14.70;5.50;;;;;;;;;;5014368;28;20280;-75
2021/12/18 07:31:20;;;;;;;11.43;5.37;;;;;;;;;;5014107;28;20273;-76
2021/12/18 07:33:46;;;;;;;12.33;5.13;;;;;;;;;;5014286;28;20319;-76
2021/12/18 07:36:12;;;;;;;15.63;5.63;;;;;;;;;;5013885;28;20384;-77
2021/12/18 07:38:38;;;;;;;16.90;6.00;;;;;;;;;;5014299;28;20280;-76
2021/12/18 07:41:04;;;;;;;17.07;6.10;;;;;;;;;;5013657;28;20289;-76
2021/12/18 07:43:31;;;;;;;12.53;5.60;;;;;;;;;;5014143;28;20281;-76
2021/12/18 07:45:57;;;;;;;12.07;5.30;;;;;;;;;;5014102;28;20314;-76
2021/12/18 07:48:23;;;;;;;13.47;5.37;;;;;;;;;;5013754;28;20331;-76
2021/12/18 07:50:49;;;;;;;18.37;6.33;;;;;;;;;;5014199;28;20343;-76
2021/12/18 07:53:16;;;;;;;17.70;6.17;;;;;;;;;;5013731;28;20807;-76
2021/12/18 07:55:43;;;;;;;17.87;6.23;;;;;;;;;;5013684;28;20784;-75
2021/12/18 07:58:09;;;;;;;16.03;6.23;;;;;;;;;;5013595;28;20285;-76
2021/12/18 08:00:35;;;;;;;15.43;5.70;;;;;;;;;;5013863;28;20281;-74
2021/12/18 08:03:01;;;;;;;12.90;5.30;;;;;;;;;;5013886;28;20284;-74
2021/12/18 08:05:28;;;;;;;14.60;5.90;;;;;;;;;;5013455;28;20273;-74
2021/12/18 08:07:54;;;;;;;16.63;5.97;;;;;;;;;;5013736;28;20312;-74
2021/12/18 08:10:20;;;;;;;10.43;5.40;;;;;;;;;;4995801;28;20316;-74
2021/12/18 08:12:46;;;;;;;15.50;5.73;;;;;;;;;;4996060;28;20289;-74
2021/12/18 08:15:12;;;;;;;14.30;5.73;;;;;;;;;;5013164;28;20305;-76
2021/12/18 08:17:39;;;;;;;13.30;5.50;;;;;;;;;;5013514;28;20291;-74
2021/12/18 08:20:05;;;;;;;12.33;5.40;;;;;;;;;;5013458;28;20285;-74
2021/12/18 08:22:32;;;;;;;14.17;5.07;;;;;;;;;;4995864;28;20297;-74
2021/12/18 08:24:58;;;;;;;18.30;5.73;;;;;;;;;;4995907;28;20292;-73
2021/12/18 08:27:24;;;;;;;15.33;5.80;;;;;;;;;;5013140;28;20765;-74
2021/12/18 08:29:50;;;;;;;14.60;5.43;;;;;;;;;;5013624;28;20615;-73
2021/12/18 08:32:16;;;;;;;14.73;5.90;;;;;;;;;;5013040;28;20685;-73
2021/12/18 08:34:43;;;;;;;14.20;5.80;;;;;;;;;;5013545;28;20297;-73
2021/12/18 08:37:09;;;;;;;14.00;5.83;;;;;;;;;;5013254;28;20280;-73
2021/12/18 08:39:35;;;;;;;17.93;6.57;;;;;;;;;;5013305;28;20431;-73
2021/12/18 08:42:04;;;;;;;14.27;5.80;;;;;;;;;;5013043;28;20780;-73
2021/12/18 08:44:30;;;;;;;12.57;5.20;;;;;;;;;;4995356;28;20296;-73
2021/12/18 08:46:57;;;;;;;12.03;4.80;;;;;;;;;;5013185;28;20330;-73
2021/12/18 08:49:24;;;;;;;13.60;5.60;;;;;;;;;;5012902;28;20355;-73
2021/12/18 08:51:50;;;;;;;13.37;5.60;;;;;;;;;;5012469;28;20637;-73
2021/12/18 08:54:16;;;;;;;11.77;5.57;;;;;;;;;;5012723;28;20288;-73
2021/12/18 08:56:42;;;;;;;13.63;5.63;;;;;;;;;;4995806;28;20372;-73
2021/12/18 08:59:08;;;;;;;10.00;4.67;;;;;;;;;;5013129;28;20285;-72
2021/12/18 09:01:34;;;;;;;10.50;4.87;;;;;;;;;;5012722;28;20361;-73
2021/12/18 09:04:01;;;;;;;13.77;5.30;;;;;;;;;;5013148;28;20363;-73
2021/12/18 09:06:27;;;;;;;16.23;5.10;;;;;;;;;;5012619;28;20357;-71
2021/12/18 09:08:53;;;;;;;14.90;6.27;;;;;;;;;;5013107;28;20372;-72
2021/12/18 09:11:19;;;;;;;15.53;5.70;;;;;;;;;;5012730;28;20729;-71
2021/12/18 09:13:46;;;;;;;9.20;5.37;;;;;;;;;;5012900;28;20323;-72
2021/12/18 09:16:12;;;;;;;14.37;6.17;;;;;;;;;;5012874;28;20293;-72
2021/12/18 09:18:38;;;;;;;12.97;5.67;;;;;;;;;;5013014;28;20299;-72
2021/12/18 09:21:05;;;;;;;15.27;6.17;;;;;;;;;;5012919;28;20771;-72
2021/12/18 09:23:31;;;;;;;13.27;6.40;;;;;;;;;;5012734;28;20280;-71
2021/12/18 09:25:58;;;;;;;13.87;5.53;;;;;;;;;;5013132;28;20332;-72
2021/12/18 09:28:24;;;;;;;14.93;5.77;;;;;;;;;;5012307;28;20757;-72
2021/12/18 09:30:50;;;;;;;14.33;5.10;;;;;;;;;;5012882;28;20368;-71
2021/12/18 09:33:17;;;;;;;13.43;5.83;;;;;;;;;;5012611;28;20280;-72
2021/12/18 09:35:44;;;;;;;12.27;4.67;;;;;;;;;;5012755;28;20300;-72
2021/12/18 09:38:10;;;;;;;16.07;4.80;;;;;;;;;;5012798;28;20285;-71
2021/12/18 09:40:36;;;;;;;14.07;4.93;;;;;;;;;;5012600;28;20273;-72
2021/12/18 09:43:02;;;;;;;12.20;5.43;;;;;;;;;;5012643;28;20281;-72
2021/12/18 09:45:29;;;;;;;12.40;5.30;;;;;;;;;;5012380;28;20304;-86
2021/12/18 09:47:55;;;;;;;12.17;5.43;;;;;;;;;;4995632;28;20285;-74
2021/12/18 09:50:23;;;;;;;11.37;5.60;;;;;;;;;;5012311;28;20281;-75
2021/12/18 09:52:49;;;;;;;11.17;4.87;;;;;;;;;;5012711;28;20309;-73
2021/12/18 09:55:15;;;;;;;10.70;4.90;;;;;;;;;;5012476;28;20297;-73
2021/12/18 09:57:41;;;;;;;10.03;4.50;;;;;;;;;;5012289;28;20771;-74
2021/12/18 10:00:09;;;;;;;11.87;5.43;;;;;;;;;;5012532;28;20303;-74
2021/12/18 10:02:35;;;;;;;13.77;4.47;;;;;;;;;;4995398;28;20301;-74
2021/12/18 10:05:02;;;;;;;9.67;4.50;;;;;;;;;;5015967;28;20364;-73
2021/12/18 10:07:28;;;;;;;10.67;5.23;;;;;;;;;;5015602;28;20383;-74
2021/12/18 10:09:59;;;;;;;10.60;4.00;;;;;;;;;;5015899;28;20587;-74
2021/12/18 10:12:29;;;;;;;9.57;3.97;;;;;;;;;;4998286;28;20292;-74
2021/12/18 10:14:57;;;;;;;9.97;3.80;;;;;;;;;;5015934;28;20636;-75
2021/12/18 10:17:23;;;;;;;10.13;3.97;;;;;;;;;;5015508;28;20289;-74
2021/12/18 10:19:50;;;;;;;9.50;3.87;;;;;;;;;;5015817;28;20285;-73
2021/12/18 10:22:16;;;;;;;6.97;3.30;;;;;;;;;;5015627;28;20295;-74
2021/12/18 10:24:44;;;;;;;5.27;2.00;;;;;;;;;;5015084;28;20383;-73
2021/12/18 10:27:17;;;;;;;7.63;2.50;;;;;;;;;;5015681;28;20292;-73
2021/12/18 10:29:43;;;;;;;4.97;1.90;;;;;;;;;;5015278;28;20334;-74
2021/12/18 10:32:10;;;;;;;17.13;2.97;;;;;;;;;;5015621;28;20676;-73
2021/12/18 10:34:37;;;;;;;75.60;8.43;;;;;;;;;;5015079;28;20304;-76
2021/12/18 10:37:14;;;;;;;6.97;2.00;;;;;;;;;;5015598;28;20619;-74
2021/12/18 10:39:44;;;;;;;7.63;2.30;;;;;;;;;;5015038;28;20387;-74
2021/12/18 10:42:16;;;;;;;7.07;2.90;;;;;;;;;;5015237;28;20288;-75
2021/12/18 10:45:00;;;;;;;5.63;3.03;;;;;;;;;;5014954;28;20351;-73
2021/12/18 10:47:26;;;;;;;13.83;3.37;;;;;;;;;;5014892;28;20289;-74
2021/12/18 10:49:53;;;;;;;60.20;9.10;;;;;;;;;;5015321;28;20308;-75
2021/12/18 10:52:35;;;;;;;7.57;3.53;;;;;;;;;;5015184;28;20626;-75
2021/12/18 10:55:03;;;;;;;8.50;3.87;;;;;;;;;;5015260;28;20652;-75
2021/12/18 10:57:29;;;;;;;12.07;4.57;;;;;;;;;;5014703;28;20321;-74
2021/12/18 10:59:58;;;;;;;11.27;4.63;;;;;;;;;;5015090;28;20285;-73
2021/12/18 11:02:26;;;;;;;28.93;7.23;;;;;;;;;;5014916;28;20284;-74
2021/12/18 11:04:53;;;;;;;9.23;4.20;;;;;;;;;;4997758;28;20355;-74
2021/12/18 11:07:19;;;;;;;36.53;6.97;;;;;;;;;;5015042;28;20355;-73
2021/12/18 11:09:59;;;;;;;9.80;4.30;;;;;;;;;;5014666;28;20311;-72
2021/12/18 11:15:11;;;;;;;13.30;4.57;;;;;;;;;;5014031;28;20340;-73
2021/12/18 11:17:37;;;;;;;11.33;4.67;;;;;;;;;;5014324;28;20050;-73
2021/12/18 11:20:04;;;;;;;71.73;9.80;;;;;;;;;;4997462;28;20327;-72
2021/12/18 11:22:30;;;;;;;43.27;8.10;;;;;;;;;;5014260;28;20285;-74
2021/12/18 11:25:22;;;;;;;17.60;4.90;;;;;;;;;;5014508;28;20843;-73
2021/12/18 11:27:49;;;;;;;17.23;5.23;;;;;;;;;;5009879;28;20297;-72
2021/12/18 11:30:17;;;;;;;12.00;5.07;;;;;;;;;;5014372;28;20321;-77
2021/12/18 11:32:45;;;;;;;11.67;4.57;;;;;;;;;;5014080;28;20284;-81
2021/12/18 11:35:16;;;;;;;12.43;5.40;;;;;;;;;;5014503;28;20720;-74
2021/12/18 11:37:47;;;;;;;14.50;5.23;;;;;;;;;;5014013;28;20368;-75
2021/12/18 11:40:18;;;;;;;12.63;5.20;;;;;;;;;;5014478;28;20272;-75
2021/12/18 11:42:44;;;;;;;13.67;4.43;;;;;;;;;;4996414;28;20641;-75
2021/12/18 11:45:11;;;;;;;16.37;4.83;;;;;;;;;;5014168;28;20705;-75
2021/12/18 11:47:37;;;;;;;24.13;7.03;;;;;;;;;;5013920;28;20360;-75
2021/12/18 11:50:22;;;;;;;15.60;4.80;;;;;;;;;;5014244;28;20396;-75
2021/12/18 11:52:56;;;;;;;10.13;3.97;;;;;;;;;;5013883;28;20371;-75
2021/12/18 11:55:23;;;;;;;10.75;3.20;;;;;;;;;;5013966;28;20457;-75
2021/12/18 11:57:50;;;;;;;10.73;3.23;;;;;;;;;;4980027;28;20050;-75
2021/12/18 12:00:21;;;;;;;8.63;2.63;;;;;;;;;;5013873;28;20296;-75
2021/12/18 12:02:47;;;;;;;11.93;2.57;;;;;;;;;;5013526;28;20317;-75
2021/12/18 12:05:14;;;;;;;11.50;3.40;;;;;;;;;;4996374;28;20293;-75
2021/12/18 12:07:42;;;;;;;9.87;3.07;;;;;;;;;;4979739;28;20303;-75
2021/12/18 12:10:13;;;;;;;10.73;3.17;;;;;;;;;;5013715;28;20614;-75
2021/12/18 12:12:53;;;;;;;13.47;3.50;;;;;;;;;;5013429;28;20745;-75
2021/12/18 12:15:20;;;;;;;13.90;3.63;;;;;;;;;;5013531;28;20315;-75
2021/12/18 12:17:57;;;;;;;11.17;3.33;;;;;;;;;;5013711;28;20368;-75
2021/12/18 12:20:40;;;;;;;7.57;2.97;;;;;;;;;;5013521;28;20681;-75
2021/12/18 12:23:06;;;;;;;8.63;3.20;;;;;;;;;;5013741;28;20280;-75
2021/12/18 12:25:32;;;;;;;12.97;3.37;;;;;;;;;;5012545;28;20331;-75
2021/12/18 12:28:03;;;;;;;13.03;3.53;;;;;;;;;;5012945;28;20571;-75
2021/12/18 12:30:29;;;;;;;9.70;3.23;;;;;;;;;;5013442;28;20287;-76
2021/12/18 12:33:01;;;;;;;10.97;3.00;;;;;;;;;;5013090;28;20288;-73
2021/12/18 12:35:27;;;;;;;12.97;3.47;;;;;;;;;;5013252;28;20300;-74
2021/12/18 12:37:53;;;;;;;13.63;3.40;;;;;;;;;;5013172;28;20781;-74
2021/12/18 12:40:31;;;;;;;11.30;2.83;;;;;;;;;;5013243;28;20281;-74
2021/12/18 12:43:13;;;;;;;8.47;2.43;;;;;;;;;;5013013;28;20338;-74
2021/12/18 12:45:41;;;;;;;8.80;3.40;;;;;;;;;;5012981;28;20367;-75
2021/12/18 12:48:08;;;;;;;6.70;2.23;;;;;;;;;;5013485;28;20363;-73
2021/12/18 12:50:34;;;;;;;11.70;2.73;;;;;;;;;;4995587;28;20287;-74
2021/12/18 12:53:02;;;;;;;9.40;2.93;;;;;;;;;;5013181;28;20317;-72
2021/12/18 12:55:29;;;;;;;8.10;2.53;;;;;;;;;;5013071;28;20307;-74
2021/12/18 12:57:55;;;;;;;13.03;3.30;;;;;;;;;;5012840;28;20645;-76
2021/12/18 13:00:22;;;;;;;7.90;2.60;;;;;;;;;;5012771;28;20321;-72
2021/12/18 13:02:51;;;;;;;9.77;3.33;;;;;;;;;;4995588;28;20744;-73
2021/12/18 13:05:17;;;;;;;8.93;3.30;;;;;;;;;;5013191;28;20360;-72
2021/12/18 13:07:49;;;;;;;10.00;3.43;;;;;;;;;;5012808;28;20686;-73
2021/12/18 13:10:19;;;;;;;9.93;4.10;;;;;;;;;;5012980;28;20291;-72
2021/12/18 13:12:52;;;;;;;11.77;3.17;;;;;;;;;;4994918;28;20730;-73
2021/12/18 13:15:18;;;;;;;12.17;3.27;;;;;;;;;;5012851;28;20311;-72
2021/12/18 13:17:44;;;;;;;8.43;3.37;;;;;;;;;;4995316;28;20291;-73
2021/12/18 13:20:11;;;;;;;7.77;3.30;;;;;;;;;;5012957;28;20320;-73
2021/12/18 13:22:37;;;;;;;9.33;3.57;;;;;;;;;;5012855;28;20284;-75
2021/12/18 13:25:06;;;;;;;10.90;3.53;;;;;;;;;;5013007;28;20289;-72
2021/12/18 13:27:33;;;;;;;11.53;3.50;;;;;;;;;;5012926;28;20353;-72
2021/12/18 13:30:12;;;;;;;8.63;4.33;;;;;;;;;;5012207;28;20828;-72
2021/12/18 13:32:50;;;;;;;10.47;4.70;;;;;;;;;;5012640;28;20359;-77
2021/12/18 13:35:17;;;;;;;10.07;4.47;;;;;;;;;;5012783;28;20304;-72
2021/12/18 13:37:53;;;;;;;10.60;4.17;;;;;;;;;;5013358;28;20363;-72
2021/12/18 13:40:19;;;;;;;9.00;3.30;;;;;;;;;;5016642;28;20363;-74
2021/12/18 13:42:45;;;;;;;9.20;3.30;;;;;;;;;;5016188;28;20728;-76
2021/12/18 13:45:12;;;;;;;8.43;2.40;;;;;;;;;;4999195;28;20372;-74
2021/12/18 13:47:47;;;;;;;10.20;2.93;;;;;;;;;;5016369;28;20825;-72
2021/12/18 13:50:18;;;;;;;;;;;;;;;;;;5016678;28;20303;-73
2021/12/18 13:52:48;;;;;;;9.87;2.80;;;;;;;;;;5015722;28;20392;-73
2021/12/18 13:55:20;;;;;;;8.10;2.87;;;;;;;;;;5016215;28;20296;-72
2021/12/18 13:58:00;;;;;;;10.73;3.00;;;;;;;;;;5015889;28;20355;-74
2021/12/18 14:00:26;;;;;;;11.57;3.20;;;;;;;;;;5016109;28;20301;-74
2021/12/18 14:02:52;;;;;;;8.50;2.90;;;;;;;;;;5015753;28;20276;-73
2021/12/18 14:05:19;;;;;;;8.87;3.13;;;;;;;;;;5016061;28;20355;-74
2021/12/18 14:07:45;;;;;;;9.23;3.50;;;;;;;;;;4998462;28;20744;-74
2021/12/18 14:10:11;;;;;;;12.90;3.40;;;;;;;;;;4998424;28;20315;-74
2021/12/18 14:12:38;;;;;;;10.47;3.30;;;;;;;;;;5015943;28;20311;-72
2021/12/18 14:15:05;;;;;;;8.80;3.03;;;;;;;;;;5015524;28;20309;-78
2021/12/18 14:17:32;;;;;;;7.93;2.83;;;;;;;;;;5016235;28;20288;-76
2021/12/18 14:20:04;;;;;;;8.97;3.00;;;;;;;;;;5015238;28;20753;-83
2021/12/18 14:22:31;;;;;;;9.73;3.40;;;;;;;;;;5015693;28;20629;-79
2021/12/18 14:25:14;;;;;;;7.50;2.60;;;;;;;;;;5015150;28;20676;-76
2021/12/18 14:27:45;;;;;;;9.07;3.30;;;;;;;;;;5015782;28;20308;-76
2021/12/18 14:30:19;;;;;;;12.37;3.50;;;;;;;;;;5015665;28;20832;-76
2021/12/18 14:32:46;;;;;;;11.45;3.17;;;;;;;;;;5020306;28;20362;-76
2021/12/18 14:35:12;;;;;;;8.00;2.83;;;;;;;;;;5027900;28;20041;-76
2021/12/18 14:37:50;;;;;;;7.47;3.00;;;;;;;;;;5029159;28;20871;-76
2021/12/18 14:40:19;;;;;;;8.23;3.37;;;;;;;;;;5029730;28;20890;-76
2021/12/18 14:42:58;;;;;;;8.67;2.77;;;;;;;;;;5028964;28;20282;-76
2021/12/18 14:45:25;;;;;;;7.23;3.37;;;;;;;;;;5028357;28;20338;-76
2021/12/18 14:47:53;;;;;;;9.87;2.90;;;;;;;;;;5028376;28;20284;-85
2021/12/18 14:50:25;;;;;;;8.73;3.10;;;;;;;;;;5027440;28;20288;-85
2021/12/18 14:52:56;;;;;;;10.67;3.30;;;;;;;;;;5028654;28;20284;-79
2021/12/18 14:55:23;;;;;;;8.23;3.50;;;;;;;;;;5027840;28;20304;-81
2021/12/18 14:58:00;;;;;;;11.80;5.00;;;;;;;;;;5029645;28;20319;-79
2021/12/18 15:00:55;;;;;;;11.60;4.97;;;;;;;;;;5014732;28;20347;-78
2021/12/18 15:03:25;;;;;;;12.23;5.68;;;;;;;;;;5004862;28;20816;-78
2021/12/18 15:05:53;;;;;;;8.20;4.90;;;;;;;;;;5034517;28;20037;-81
2021/12/18 15:08:20;;;;;;;9.80;4.83;;;;;;;;;;5034895;28;20682;-81
2021/12/18 15:10:52;;;;;;;10.03;4.90;;;;;;;;;;5034653;28;20288;-77
2021/12/18 15:13:21;;;;;;;9.33;4.70;;;;;;;;;;5034724;28;20636;-82
2021/12/18 15:15:47;;;;;;;13.83;4.87;;;;;;;;;;5016925;28;20392;-75
2021/12/18 15:18:14;;;;;;;11.73;4.97;;;;;;;;;;5034323;28;20292;-78
2021/12/18 15:20:40;;;;;;;11.73;5.43;;;;;;;;;;5034383;28;20276;-80
2021/12/18 15:23:06;;;;;;;13.93;5.53;;;;;;;;;;5034045;28;20288;-77